Terminal Aerodrome Forecast
Issued by NWS

Home | Current Version | Previous Version | Text Only | Print | Product List | Glossary On
Versions: 1 2 3 4 5 6 7 8 9 10 11 12 13 14 15
439
FTUS42 TJSJ 262331
TAFJBQ
TAF
TJBQ 262331Z 2700/2724 10003KT P6SM VCSH OVC040
      TEMPO 2700/2701 -RA BKN025 BKN040 BKN080
     FM270600 VRB03KT P6SM FEW025 SCT110
     FM271400 07013KT P6SM SCT030
     FM272200 11005KT P6SM FEW040
      AMD NOT SKED 2702/2711=

USA.gov is the U.S. government's official web portal to all federal, state and local government web resources and services.